Time;durP1;ratioP1;P1;durP2;ratioP2;P2;SDS_P1;SDS_P2;PMS_P1;PMS_P2;Temp;Humidity;BMP_temperature;BMP_pressure;BME280_temperature;BME280_humidity;BME280_pressure;Samples;Min_cycle;Max_cycle;Signal;HPM_P1;HPM_P2
2021/05/27 00:00:43;;;;;;;22.13;11.30;;;;;;;;;;5030458;28;20101;-86
2021/05/27 00:03:09;;;;;;;23.60;12.82;;;;;;;;;;5048198;28;20095;-86
2021/05/27 00:05:34;;;;;;;28.77;11.95;;;;;;;;;;5017750;28;20040;-86
2021/05/27 00:08:00;;;;;;;18.95;9.40;;;;;;;;;;5029146;28;20024;-86
2021/05/27 00:10:27;;;;;;;27.20;13.52;;;;;;;;;;5029656;28;20031;-85
2021/05/27 00:12:52;;;;;;;27.20;14.02;;;;;;;;;;5048157;28;20029;-86
2021/05/27 00:15:18;;;;;;;31.42;14.93;;;;;;;;;;5048846;28;20100;-87
2021/05/27 00:17:43;;;;;;;36.35;15.63;;;;;;;;;;5030334;28;20292;-87
2021/05/27 00:20:09;;;;;;;27.52;14.50;;;;;;;;;;5048718;28;20017;-86
2021/05/27 00:22:35;;;;;;;25.52;14.13;;;;;;;;;;5046172;28;20020;-86
2021/05/27 00:25:00;;;;;;;27.50;14.32;;;;;;;;;;5046851;28;20112;-86
2021/05/27 00:27:25;;;;;;;27.65;14.90;;;;;;;;;;5028963;28;20150;-88
2021/05/27 00:29:50;;;;;;;32.92;14.88;;;;;;;;;;5029889;28;20021;-86
2021/05/27 00:32:16;;;;;;;29.67;13.83;;;;;;;;;;5046994;28;20082;-85
2021/05/27 00:34:41;;;;;;;24.73;13.40;;;;;;;;;;5029842;28;20271;-86
2021/05/27 00:37:06;;;;;;;26.05;13.88;;;;;;;;;;5028767;28;20398;-86
2021/05/27 00:39:31;;;;;;;31.13;15.90;;;;;;;;;;5028475;28;20063;-85
2021/05/27 00:41:58;;;;;;;31.33;14.02;;;;;;;;;;5013650;28;20020;-86
2021/05/27 00:44:27;;;;;;;27.27;11.95;;;;;;;;;;5029062;28;20601;-86
2021/05/27 00:46:53;;;;;;;25.77;11.37;;;;;;;;;;5026109;28;20037;-86
2021/05/27 00:49:18;;;;;;;18.10;9.95;;;;;;;;;;5046778;28;20232;-84
2021/05/27 00:51:44;;;;;;;23.42;9.65;;;;;;;;;;5053542;22;20037;-67
2021/05/27 00:54:10;;;;;;;21.67;10.43;;;;;;;;;;5048706;28;20071;-67
2021/05/27 00:56:35;;;;;;;19.67;10.27;;;;;;;;;;5069604;28;20044;-67
2021/05/27 00:59:01;;;;;;;17.85;9.75;;;;;;;;;;5069463;28;20024;-67
2021/05/27 01:01:26;;;;;;;18.10;10.57;;;;;;;;;;5069760;28;20120;-67
2021/05/27 01:03:51;;;;;;;17.83;9.00;;;;;;;;;;5069631;28;20485;-67
2021/05/27 01:06:16;;;;;;;22.83;9.97;;;;;;;;;;5069216;28;20024;-67
2021/05/27 01:08:41;;;;;;;18.00;8.80;;;;;;;;;;5069660;28;20267;-67
2021/05/27 01:11:07;;;;;;;17.20;10.13;;;;;;;;;;5063950;28;20266;-67
2021/05/27 01:13:32;;;;;;;28.25;10.38;;;;;;;;;;5060365;28;20017;-67
2021/05/27 01:15:57;;;;;;;17.85;10.07;;;;;;;;;;5069693;28;20032;-67
2021/05/27 01:18:24;;;;;;;18.65;9.93;;;;;;;;;;5069017;28;20033;-67
2021/05/27 01:20:51;;;;;;;17.45;9.90;;;;;;;;;;5068950;28;20108;-67
2021/05/27 01:23:17;;;;;;;21.10;10.35;;;;;;;;;;5069679;28;20090;-67
2021/05/27 01:25:45;;;;;;;16.75;10.07;;;;;;;;;;5069351;28;20081;-67
2021/05/27 01:28:10;;;;;;;20.65;10.48;;;;;;;;;;5067767;28;20047;-67
2021/05/27 01:30:35;;;;;;;22.33;11.95;;;;;;;;;;5065305;28;20479;-67
2021/05/27 01:33:00;;;;;;;31.03;11.10;;;;;;;;;;5069489;28;20036;-67
2021/05/27 01:35:26;;;;;;;26.47;11.97;;;;;;;;;;5069745;28;20348;-67
2021/05/27 01:37:52;;;;;;;19.98;10.65;;;;;;;;;;5072967;28;20274;-67
2021/05/27 01:40:20;;;;;;;24.90;11.13;;;;;;;;;;5072826;28;20017;-67
2021/05/27 01:42:45;;;;;;;19.33;10.73;;;;;;;;;;5072846;28;20013;-67
2021/05/27 01:45:11;;;;;;;22.85;13.05;;;;;;;;;;5066010;28;20013;-67
2021/05/27 01:47:36;;;;;;;28.33;12.45;;;;;;;;;;5072501;28;20708;-67
2021/05/27 01:50:01;;;;;;;22.02;11.07;;;;;;;;;;5072861;28;20020;-67
2021/05/27 01:52:27;;;;;;;35.25;14.50;;;;;;;;;;5073180;28;20040;-67
2021/05/27 01:54:52;;;;;;;28.83;12.10;;;;;;;;;;5054302;28;20552;-67
2021/05/27 01:57:17;;;;;;;27.47;12.27;;;;;;;;;;5072893;28;20382;-67
2021/05/27 01:59:42;;;;;;;18.55;11.80;;;;;;;;;;5070365;28;20281;-67
2021/05/27 02:02:07;;;;;;;29.38;12.35;;;;;;;;;;5066322;28;20016;-67
2021/05/27 02:04:33;;;;;;;23.07;12.03;;;;;;;;;;5069681;28;20028;-67
2021/05/27 02:07:06;;;;;;;26.45;14.15;;;;;;;;;;5062284;28;20297;-67
2021/05/27 02:09:31;;;;;;;27.45;13.00;;;;;;;;;;5070612;28;20043;-67
2021/05/27 02:11:56;;;;;;;28.13;11.23;;;;;;;;;;5070838;28;20449;-67
2021/05/27 02:14:22;;;;;;;18.57;10.23;;;;;;;;;;5070267;28;20279;-67
2021/05/27 02:16:47;;;;;;;31.30;11.43;;;;;;;;;;5068951;28;20381;-67
2021/05/27 02:19:12;;;;;;;26.17;12.43;;;;;;;;;;5057851;28;20025;-67
2021/05/27 02:21:38;;;;;;;26.75;13.93;;;;;;;;;;5070511;28;20033;-68
2021/05/27 02:24:04;;;;;;;31.13;12.88;;;;;;;;;;5070245;28;20058;-68
2021/05/27 02:26:29;;;;;;;28.98;13.65;;;;;;;;;;5069385;28;20082;-69
2021/05/27 02:28:55;;;;;;;27.77;13.27;;;;;;;;;;5070574;28;20028;-68
2021/05/27 02:31:21;;;;;;;24.30;13.15;;;;;;;;;;5068497;28;20024;-68
2021/05/27 02:33:46;;;;;;;24.13;13.20;;;;;;;;;;5070265;28;20048;-67
2021/05/27 02:36:12;;;;;;;29.33;13.70;;;;;;;;;;5069481;28;20039;-68
2021/05/27 02:38:37;;;;;;;25.98;11.43;;;;;;;;;;5070188;28;20039;-68
2021/05/27 02:41:03;;;;;;;24.85;12.68;;;;;;;;;;5069618;28;20482;-68
2021/05/27 02:43:29;;;;;;;24.70;13.57;;;;;;;;;;5069697;28;20667;-68
2021/05/27 02:45:54;;;;;;;27.05;12.57;;;;;;;;;;5060958;28;20017;-68
2021/05/27 02:48:19;;;;;;;28.95;14.00;;;;;;;;;;5070300;28;20081;-67
2021/05/27 02:50:44;;;;;;;24.08;13.45;;;;;;;;;;5071629;28;20024;-68
2021/05/27 02:53:09;;;;;;;21.83;12.30;;;;;;;;;;5064492;28;20024;-67
2021/05/27 02:55:35;;;;;;;30.85;13.70;;;;;;;;;;5071124;28;20764;-68
2021/05/27 02:58:00;;;;;;;31.42;13.25;;;;;;;;;;5071664;28;20025;-68
2021/05/27 03:00:25;;;;;;;27.57;12.47;;;;;;;;;;5071225;28;20052;-67
2021/05/27 03:02:50;;;;;;;29.13;13.67;;;;;;;;;;5068593;28;20271;-67
2021/05/27 03:05:15;;;;;;;25.83;14.43;;;;;;;;;;5060189;28;20813;-68
2021/05/27 03:07:41;;;;;;;29.13;13.67;;;;;;;;;;5047074;28;20277;-67
2021/05/27 03:10:06;;;;;;;28.63;13.60;;;;;;;;;;5064053;28;20718;-68
2021/05/27 03:12:31;;;;;;;27.60;13.85;;;;;;;;;;5064502;28;20475;-68
2021/05/27 03:14:56;;;;;;;29.13;13.37;;;;;;;;;;5057259;28;20035;-68
2021/05/27 03:17:22;;;;;;;27.67;12.75;;;;;;;;;;5064727;28;20832;-67
2021/05/27 03:19:47;;;;;;;28.13;13.65;;;;;;;;;;5071329;28;20104;-68
2021/05/27 03:22:12;;;;;;;27.20;13.32;;;;;;;;;;5064650;28;20020;-68
2021/05/27 03:24:37;;;;;;;36.03;14.40;;;;;;;;;;5056659;28;20483;-68
2021/05/27 03:27:03;;;;;;;24.48;12.88;;;;;;;;;;5054682;28;20032;-68
2021/05/27 03:29:28;;;;;;;32.47;17.67;;;;;;;;;;5066500;28;20024;-68
2021/05/27 03:31:53;;;;;;;26.57;14.73;;;;;;;;;;5071403;28;20490;-68
2021/05/27 03:34:18;;;;;;;26.80;14.98;;;;;;;;;;5071091;28;20275;-67
2021/05/27 03:36:43;;;;;;;26.55;16.75;;;;;;;;;;5070725;28;20029;-68
2021/05/27 03:39:09;;;;;;;26.15;15.50;;;;;;;;;;5070863;28;20103;-68
2021/05/27 03:41:34;;;;;;;30.35;18.17;;;;;;;;;;5070584;28;20016;-68
2021/05/27 03:43:59;;;;;;;28.52;16.40;;;;;;;;;;5070206;28;20085;-68
2021/05/27 03:46:24;;;;;;;28.30;15.90;;;;;;;;;;5049648;28;20149;-68
2021/05/27 03:48:49;;;;;;;32.13;16.97;;;;;;;;;;5070765;28;20029;-68
2021/05/27 03:51:15;;;;;;;34.10;17.03;;;;;;;;;;5070463;28;20354;-68
2021/05/27 03:53:40;;;;;;;30.45;16.83;;;;;;;;;;5058787;28;20272;-68
2021/05/27 03:56:05;;;;;;;33.28;16.70;;;;;;;;;;5069956;28;20066;-68
2021/05/27 04:01:14;;;;;;;23.73;14.15;;;;;;;;;;5070288;28;20157;-68
2021/05/27 04:09:07;;;;;;;25.58;15.52;;;;;;;;;;5068040;28;20097;-67
2021/05/27 04:11:33;;;;;;;28.98;14.20;;;;;;;;;;5068195;28;20727;-68
2021/05/27 04:13:58;;;;;;;25.75;13.35;;;;;;;;;;5058952;28;20036;-67
2021/05/27 04:16:23;;;;;;;26.50;13.60;;;;;;;;;;5068503;28;20097;-68
2021/05/27 04:18:48;;;;;;;31.30;13.00;;;;;;;;;;5067288;28;20390;-68
2021/05/27 04:21:13;;;;;;;30.65;14.45;;;;;;;;;;5050559;28;20059;-69
2021/05/27 04:23:40;;;;;;;19.43;11.70;;;;;;;;;;5067689;28;20024;-68
2021/05/27 04:26:09;;;;;;;25.10;13.23;;;;;;;;;;5068232;28;20307;-68
2021/05/27 04:28:36;;;;;;;27.45;13.55;;;;;;;;;;5067460;28;20383;-68
2021/05/27 04:31:11;;;;;;;22.98;12.98;;;;;;;;;;5068095;28;20024;-68
2021/05/27 04:33:38;;;;;;;29.13;11.38;;;;;;;;;;5058763;28;20096;-68
2021/05/27 04:36:03;;;;;;;20.25;12.07;;;;;;;;;;5065446;28;20032;-68
2021/05/27 04:38:29;;;;;;;21.50;12.93;;;;;;;;;;5068886;28;20025;-68
2021/05/27 04:40:54;;;;;;;20.95;10.93;;;;;;;;;;5069258;28;20086;-68
2021/05/27 04:43:19;;;;;;;28.48;13.55;;;;;;;;;;5069434;28;20028;-68
2021/05/27 04:45:44;;;;;;;23.02;12.20;;;;;;;;;;5069582;28;20017;-68
2021/05/27 04:48:12;;;;;;;23.30;11.63;;;;;;;;;;5069383;28;20032;-69
2021/05/27 04:50:37;;;;;;;25.67;11.48;;;;;;;;;;5068058;28;20697;-68
2021/05/27 04:53:03;;;;;;;18.85;12.32;;;;;;;;;;5061249;28;20111;-68
2021/05/27 04:55:29;;;;;;;23.95;11.43;;;;;;;;;;5058030;28;20025;-69
2021/05/27 04:57:54;;;;;;;22.25;11.05;;;;;;;;;;5066753;28;20103;-68
2021/05/27 05:00:20;;;;;;;24.63;11.05;;;;;;;;;;5067510;28;20063;-69
2021/05/27 05:02:46;;;;;;;21.05;10.93;;;;;;;;;;5066714;28;20033;-68
2021/05/27 05:05:12;;;;;;;19.55;10.85;;;;;;;;;;5060113;28;20017;-69
2021/05/27 05:07:38;;;;;;;28.17;11.23;;;;;;;;;;5065828;28;20100;-68
2021/05/27 05:10:03;;;;;;;19.80;11.10;;;;;;;;;;5071270;28;20104;-68
2021/05/27 05:12:29;;;;;;;25.90;11.07;;;;;;;;;;5073494;28;20470;-68
2021/05/27 05:14:54;;;;;;;27.98;12.98;;;;;;;;;;5072997;28;20532;-69
2021/05/27 05:17:19;;;;;;;25.53;10.77;;;;;;;;;;5067900;28;20025;-68
2021/05/27 05:19:44;;;;;;;23.20;12.52;;;;;;;;;;5069764;28;20295;-70
2021/05/27 05:22:09;;;;;;;22.50;11.63;;;;;;;;;;5068069;28;20536;-68
2021/05/27 05:24:35;;;;;;;25.17;13.90;;;;;;;;;;5067370;28;20017;-70
2021/05/27 05:27:01;;;;;;;22.05;12.73;;;;;;;;;;5051906;28;20776;-69
2021/05/27 05:29:27;;;;;;;35.45;14.20;;;;;;;;;;5068633;28;20414;-69
2021/05/27 05:31:52;;;;;;;27.45;13.85;;;;;;;;;;5048359;28;20024;-69
2021/05/27 05:34:17;;;;;;;35.60;14.85;;;;;;;;;;5050280;28;20067;-69
2021/05/27 05:36:42;;;;;;;31.83;16.47;;;;;;;;;;5070927;28;20112;-69
2021/05/27 05:39:07;;;;;;;34.28;16.10;;;;;;;;;;5069221;28;20267;-70
2021/05/27 05:41:33;;;;;;;28.93;16.60;;;;;;;;;;5070915;28;20020;-73
2021/05/27 05:43:58;;;;;;;40.53;18.70;;;;;;;;;;5071632;28;20270;-70
2021/05/27 05:46:24;;;;;;;36.60;18.75;;;;;;;;;;5066359;28;20017;-69
2021/05/27 05:48:49;;;;;;;42.70;18.92;;;;;;;;;;5066667;28;20032;-70
2021/05/27 05:51:14;;;;;;;42.63;20.10;;;;;;;;;;5070367;28;20099;-69
2021/05/27 05:53:39;;;;;;;39.55;20.23;;;;;;;;;;5070223;28;20036;-70
2021/05/27 05:56:05;;;;;;;43.45;21.08;;;;;;;;;;5069120;28;20027;-70
2021/05/27 05:58:30;;;;;;;43.28;19.95;;;;;;;;;;5066052;28;20024;-70
2021/05/27 06:00:56;;;;;;;51.55;22.92;;;;;;;;;;5062596;28;20096;-70
2021/05/27 06:03:21;;;;;;;40.50;21.73;;;;;;;;;;5072207;28;20024;-70
2021/05/27 06:05:47;;;;;;;44.80;21.80;;;;;;;;;;5072494;28;20028;-71
2021/05/27 06:08:12;;;;;;;38.28;21.55;;;;;;;;;;5072445;28;20510;-71
2021/05/27 06:10:37;;;;;;;51.20;24.52;;;;;;;;;;5072456;28;20443;-70
2021/05/27 06:13:03;;;;;;;46.08;22.17;;;;;;;;;;5072567;28;20107;-70
2021/05/27 06:15:28;;;;;;;48.72;23.92;;;;;;;;;;5060570;28;20025;-71
2021/05/27 06:17:54;;;;;;;45.00;23.67;;;;;;;;;;5059220;28;20029;-69
2021/05/27 06:20:20;;;;;;;54.78;26.05;;;;;;;;;;5063616;28;20040;-71
2021/05/27 06:22:46;;;;;;;46.10;27.20;;;;;;;;;;5069686;28;20095;-70
2021/05/27 06:25:12;;;;;;;59.30;26.67;;;;;;;;;;5049257;28;20415;-70
2021/05/27 06:27:37;;;;;;;51.72;28.08;;;;;;;;;;5070483;28;20119;-70
2021/05/27 06:30:03;;;;;;;45.15;30.45;;;;;;;;;;5060673;28;20027;-69
2021/05/27 06:32:29;;;;;;;40.35;22.15;;;;;;;;;;5056629;28;20025;-70
2021/05/27 06:34:55;;;;;;;48.28;23.38;;;;;;;;;;5054596;28;20021;-72
2021/05/27 06:37:20;;;;;;;38.80;22.15;;;;;;;;;;5068329;28;20016;-69
2021/05/27 06:39:45;;;;;;;44.50;20.73;;;;;;;;;;5068928;28;20078;-70
2021/05/27 06:42:10;;;;;;;41.97;22.08;;;;;;;;;;5067504;28;20340;-70
2021/05/27 06:44:36;;;;;;;40.95;22.48;;;;;;;;;;5058850;28;20041;-70
2021/05/27 06:47:01;;;;;;;42.83;23.33;;;;;;;;;;5066481;28;20025;-73
2021/05/27 06:49:26;;;;;;;46.57;22.47;;;;;;;;;;5067476;28;20407;-71
2021/05/27 06:51:55;;;;;;;55.15;25.17;;;;;;;;;;5065860;28;20259;-71
2021/05/27 06:54:20;;;;;;;47.92;21.35;;;;;;;;;;5063438;28;20032;-70
2021/05/27 06:56:46;;;;;;;47.90;21.93;;;;;;;;;;5061428;28;20020;-70
2021/05/27 06:59:11;;;;;;;54.53;22.93;;;;;;;;;;5063171;28;20297;-70
2021/05/27 07:01:36;;;;;;;46.03;20.20;;;;;;;;;;5065125;28;20324;-71
2021/05/27 07:04:01;;;;;;;52.80;20.35;;;;;;;;;;5064009;28;20258;-69
2021/05/27 07:06:26;;;;;;;50.13;20.48;;;;;;;;;;5063911;28;20398;-70
2021/05/27 07:08:52;;;;;;;60.97;20.03;;;;;;;;;;5048258;28;20040;-71
2021/05/27 07:11:17;;;;;;;58.03;21.10;;;;;;;;;;5066519;28;20259;-70
2021/05/27 07:13:42;;;;;;;42.23;19.33;;;;;;;;;;5066456;28;20275;-70
2021/05/27 07:16:08;;;;;;;42.28;19.33;;;;;;;;;;5065216;28;20273;-70
2021/05/27 07:18:33;;;;;;;48.67;20.37;;;;;;;;;;5064715;28;20071;-69
2021/05/27 07:20:58;;;;;;;46.30;20.50;;;;;;;;;;5064737;28;20275;-70
2021/05/27 07:23:23;;;;;;;48.67;21.57;;;;;;;;;;5063103;28;20254;-69
2021/05/27 07:25:48;;;;;;;51.80;22.50;;;;;;;;;;5065034;28;20793;-71
2021/05/27 07:28:15;;;;;;;54.42;22.33;;;;;;;;;;5064764;28;20064;-69
2021/05/27 07:30:40;;;;;;;58.05;23.85;;;;;;;;;;5065296;28;20012;-69
2021/05/27 07:33:06;;;;;;;47.40;21.05;;;;;;;;;;5069845;28;20020;-69
2021/05/27 07:35:31;;;;;;;50.55;21.02;;;;;;;;;;5068302;28;20016;-70
2021/05/27 07:37:57;;;;;;;54.58;19.83;;;;;;;;;;5070113;28;20027;-69
2021/05/27 07:40:23;;;;;;;39.95;22.45;;;;;;;;;;5069903;28;20020;-68
2021/05/27 07:42:48;;;;;;;50.30;19.13;;;;;;;;;;5063510;28;20555;-69
2021/05/27 07:45:13;;;;;;;44.63;20.00;;;;;;;;;;5065426;28;20028;-69
2021/05/27 07:47:38;;;;;;;46.08;20.75;;;;;;;;;;5064479;28;20490;-68
2021/05/27 07:50:05;;;;;;;52.20;20.13;;;;;;;;;;5062608;28;20384;-70
2021/05/27 07:52:30;;;;;;;46.00;16.95;;;;;;;;;;5064861;28;20271;-70
2021/05/27 07:54:55;;;;;;;35.15;17.63;;;;;;;;;;5062738;28;20043;-69
2021/05/27 07:57:21;;;;;;;40.70;15.88;;;;;;;;;;5062599;28;20459;-70
2021/05/27 07:59:46;;;;;;;48.55;19.00;;;;;;;;;;5062374;28;20039;-69
2021/05/27 08:02:11;;;;;;;42.42;15.95;;;;;;;;;;5065870;28;20024;-69
2021/05/27 08:04:37;;;;;;;39.08;14.68;;;;;;;;;;5063832;28;20028;-69
2021/05/27 08:07:02;;;;;;;45.75;16.73;;;;;;;;;;5063212;28;20490;-70
2021/05/27 08:09:27;;;;;;;42.70;15.02;;;;;;;;;;5062101;28;20032;-70
2021/05/27 08:11:52;;;;;;;38.80;12.97;;;;;;;;;;5062824;28;20047;-70
2021/05/27 08:14:18;;;;;;;35.95;11.75;;;;;;;;;;5061998;28;20258;-69
2021/05/27 08:16:43;;;;;;;30.15;13.40;;;;;;;;;;5063320;28;20474;-70
2021/05/27 08:19:08;;;;;;;24.73;10.48;;;;;;;;;;5062705;28;20025;-72
2021/05/27 08:21:33;;;;;;;34.10;11.40;;;;;;;;;;5063249;28;20133;-69
2021/05/27 08:23:59;;;;;;;28.60;10.68;;;;;;;;;;5045180;28;20111;-70
2021/05/27 08:26:24;;;;;;;26.73;9.50;;;;;;;;;;5061512;28;21179;-70
2021/05/27 08:28:52;;;;;;;16.00;7.43;;;;;;;;;;5041874;28;20087;-70
2021/05/27 08:31:17;;;;;;;24.92;8.57;;;;;;;;;;5063652;28;20116;-70
2021/05/27 08:33:42;;;;;;;17.93;8.33;;;;;;;;;;5045920;28;20089;-70
2021/05/27 08:36:08;;;;;;;23.55;9.13;;;;;;;;;;5064347;28;20267;-69
2021/05/27 08:38:33;;;;;;;22.77;9.23;;;;;;;;;;5061160;28;20039;-70
2021/05/27 08:40:58;;;;;;;26.40;9.10;;;;;;;;;;5063959;28;20024;-70
2021/05/27 08:43:23;;;;;;;24.25;9.88;;;;;;;;;;5063439;28;20024;-70
2021/05/27 08:45:49;;;;;;;23.20;8.85;;;;;;;;;;5062306;28;20031;-71
2021/05/27 08:48:15;;;;;;;19.48;7.95;;;;;;;;;;5062816;28;20020;-69
2021/05/27 08:50:44;;;;;;;26.38;9.00;;;;;;;;;;5063707;28;20382;-71
2021/05/27 08:53:09;;;;;;;27.50;9.57;;;;;;;;;;5063932;28;20100;-71
2021/05/27 08:55:35;;;;;;;25.38;9.05;;;;;;;;;;5064210;28;20029;-69
2021/05/27 08:58:00;;;;;;;16.40;7.70;;;;;;;;;;5062060;28;20390;-69
2021/05/27 09:00:25;;;;;;;24.43;9.17;;;;;;;;;;5062916;28;20017;-70
2021/05/27 09:02:55;;;;;;;18.10;7.53;;;;;;;;;;5064918;28;20333;-69
2021/05/27 09:05:21;;;;;;;22.65;9.32;;;;;;;;;;5064196;28;20254;-69
2021/05/27 09:07:46;;;;;;;24.08;10.88;;;;;;;;;;5063513;28;20539;-70
2021/05/27 09:10:11;;;;;;;19.98;9.38;;;;;;;;;;5046253;28;20028;-69
2021/05/27 09:12:37;;;;;;;26.27;8.63;;;;;;;;;;5062173;28;20035;-71
2021/05/27 09:15:14;;;;;;;20.50;8.90;;;;;;;;;;5063200;28;20016;-69
2021/05/27 09:17:43;;;;;;;22.67;9.70;;;;;;;;;;5062515;28;20123;-71
2021/05/27 09:20:22;;;;;;;19.25;8.18;;;;;;;;;;5064280;28;20103;-70
2021/05/27 09:22:48;;;;;;;21.38;8.50;;;;;;;;;;5063740;28;20107;-69
2021/05/27 09:25:27;;;;;;;22.52;8.98;;;;;;;;;;5063195;28;20104;-70
2021/05/27 09:27:52;;;;;;;19.55;8.77;;;;;;;;;;5062465;28;20017;-71
2021/05/27 09:30:17;;;;;;;16.98;9.60;;;;;;;;;;5060763;28;20036;-69
2021/05/27 09:32:46;;;;;;;18.17;8.05;;;;;;;;;;5063259;28;20375;-72
2021/05/27 09:35:12;;;;;;;20.42;8.70;;;;;;;;;;5050069;28;20465;-69
2021/05/27 09:37:37;;;;;;;21.60;10.32;;;;;;;;;;5068195;28;20054;-70
2021/05/27 09:40:05;;;;;;;17.42;9.05;;;;;;;;;;5068168;28;20017;-69
2021/05/27 09:42:39;;;;;;;26.50;9.95;;;;;;;;;;5067360;28;20028;-69
2021/05/27 09:45:14;;;;;;;22.15;10.68;;;;;;;;;;5057094;28;20020;-69
2021/05/27 09:47:39;;;;;;;20.67;9.73;;;;;;;;;;5069112;28;20375;-69
2021/05/27 09:50:06;;;;;;;20.80;9.55;;;;;;;;;;5068860;28;20039;-70
2021/05/27 09:52:42;;;;;;;26.15;9.80;;;;;;;;;;5050099;28;20427;-70
2021/05/27 09:55:08;;;;;;;24.65;9.68;;;;;;;;;;5050411;28;20379;-69
2021/05/27 09:57:34;;;;;;;22.55;11.75;;;;;;;;;;5068186;28;20021;-70
2021/05/27 09:59:59;;;;;;;24.25;8.90;;;;;;;;;;5068340;28;20016;-70
2021/05/27 10:02:24;;;;;;;25.55;10.52;;;;;;;;;;5066168;28;20356;-69
2021/05/27 10:04:56;;;;;;;29.27;10.10;;;;;;;;;;5054519;28;20495;-70
2021/05/27 10:07:39;;;;;;;26.77;9.73;;;;;;;;;;5068455;28;20024;-69
2021/05/27 10:10:06;;;;;;;25.33;9.52;;;;;;;;;;5066409;28;20032;-70
2021/05/27 10:12:36;;;;;;;23.20;8.60;;;;;;;;;;5070906;28;20028;-69
2021/05/27 10:15:01;;;;;;;19.60;9.50;;;;;;;;;;5071925;28;21839;-70
2021/05/27 10:17:26;;;;;;;16.42;8.80;;;;;;;;;;5072221;28;20275;-70
2021/05/27 10:19:52;;;;;;;25.23;9.30;;;;;;;;;;5071795;28;20051;-69
2021/05/27 10:22:17;;;;;;;23.77;9.32;;;;;;;;;;5072683;28;20763;-70
2021/05/27 10:24:42;;;;;;;24.38;10.15;;;;;;;;;;5072558;28;20539;-70
2021/05/27 10:27:07;;;;;;;23.52;11.43;;;;;;;;;;5043907;28;20036;-70
2021/05/27 10:29:33;;;;;;;24.83;10.48;;;;;;;;;;5069681;28;20031;-71
2021/05/27 10:31:59;;;;;;;30.27;11.15;;;;;;;;;;5067815;28;20024;-70
2021/05/27 10:34:42;;;;;;;27.02;11.55;;;;;;;;;;5064996;28;20017;-70
2021/05/27 10:37:08;;;;;;;18.33;10.27;;;;;;;;;;5069672;28;20398;-71
2021/05/27 10:39:33;;;;;;;23.45;10.55;;;;;;;;;;5070886;28;20016;-69
2021/05/27 10:41:59;;;;;;;31.17;12.80;;;;;;;;;;5071025;28;20020;-70
2021/05/27 10:44:24;;;;;;;25.92;10.50;;;;;;;;;;5071947;28;20031;-70
2021/05/27 10:46:52;;;;;;;27.75;10.50;;;;;;;;;;5070978;28;20019;-69
2021/05/27 10:49:37;;;;;;;21.67;10.65;;;;;;;;;;5070686;28;20023;-70
2021/05/27 10:52:21;;;;;;;16.63;10.18;;;;;;;;;;5062596;28;20069;-71
2021/05/27 10:54:46;;;;;;;22.98;11.38;;;;;;;;;;5063306;28;20017;-69
2021/05/27 10:57:31;;;;;;;22.92;11.23;;;;;;;;;;5060206;28;20020;-69
2021/05/27 10:59:57;;;;;;;26.73;12.00;;;;;;;;;;5041969;28;20263;-69
2021/05/27 11:02:22;;;;;;;31.45;12.93;;;;;;;;;;5071346;28;20415;-71
2021/05/27 11:04:47;;;;;;;24.35;12.02;;;;;;;;;;5071240;28;20455;-69
2021/05/27 11:07:15;;;;;;;30.37;12.00;;;;;;;;;;5053387;28;20025;-70
2021/05/27 11:09:40;;;;;;;27.88;13.00;;;;;;;;;;5071911;28;20306;-69
2021/05/27 11:12:16;;;;;;;31.45;13.55;;;;;;;;;;5071865;28;20073;-70
2021/05/27 11:14:44;;;;;;;28.50;11.68;;;;;;;;;;5064867;28;20070;-70
2021/05/27 11:17:15;;;;;;;26.42;10.75;;;;;;;;;;5071197;28;20021;-70
2021/05/27 11:22:32;;;;;;;27.30;12.23;;;;;;;;;;5061008;28;20020;-70
2021/05/27 11:25:16;;;;;;;22.45;11.63;;;;;;;;;;5070969;28;20012;-70
2021/05/27 11:27:44;;;;;;;28.65;12.80;;;;;;;;;;5066750;28;20027;-70
2021/05/27 11:30:27;;;;;;;31.02;10.65;;;;;;;;;;5062575;28;20044;-70
2021/05/27 11:32:54;;;;;;;25.63;12.10;;;;;;;;;;5070834;28;20028;-70
2021/05/27 11:35:21;;;;;;;26.63;10.50;;;;;;;;;;5071035;28;20025;-70
2021/05/27 11:37:46;;;;;;;26.25;10.32;;;;;;;;;;5070907;28;20086;-70
2021/05/27 11:40:13;;;;;;;27.98;11.30;;;;;;;;;;5067444;28;20029;-70
2021/05/27 11:42:39;;;;;;;26.20;11.60;;;;;;;;;;5061882;28;20027;-70
2021/05/27 11:45:06;;;;;;;21.23;11.05;;;;;;;;;;5067809;28;20043;-70
2021/05/27 11:47:32;;;;;;;26.33;11.65;;;;;;;;;;5070151;28;20032;-69
2021/05/27 11:50:01;;;;;;;29.67;12.20;;;;;;;;;;5069986;28;20028;-70
2021/05/27 11:52:26;;;;;;;27.05;11.02;;;;;;;;;;5051786;28;20275;-70
2021/05/27 11:54:52;;;;;;;27.20;11.67;;;;;;;;;;5070002;28;20028;-70
2021/05/27 11:57:18;;;;;;;28.17;12.38;;;;;;;;;;5070354;28;20644;-70
2021/05/27 11:59:43;;;;;;;21.83;11.50;;;;;;;;;;5070514;28;20012;-70
2021/05/27 12:02:10;;;;;;;31.33;11.02;;;;;;;;;;5070634;28;20466;-70
2021/05/27 12:04:35;;;;;;;23.80;10.98;;;;;;;;;;5070191;28;20078;-70
2021/05/27 12:07:07;;;;;;;28.35;10.35;;;;;;;;;;5070239;28;20021;-69
2021/05/27 12:09:32;;;;;;;30.58;11.40;;;;;;;;;;5067837;28;20494;-69
2021/05/27 12:12:11;;;;;;;28.17;10.95;;;;;;;;;;5070565;28;20070;-69
2021/05/27 12:14:45;;;;;;;24.77;11.60;;;;;;;;;;5070301;28;20009;-70
2021/05/27 12:17:17;;;;;;;26.65;9.57;;;;;;;;;;5050851;28;20112;-70
2021/05/27 12:19:46;;;;;;;19.58;9.32;;;;;;;;;;5058299;28;20025;-70
2021/05/27 12:22:11;;;;;;;29.00;8.68;;;;;;;;;;5061715;28;20621;-70
2021/05/27 12:24:37;;;;;;;26.50;9.20;;;;;;;;;;5052474;28;20016;-69
2021/05/27 12:27:02;;;;;;;22.80;8.73;;;;;;;;;;5068435;28;20028;-69
2021/05/27 12:29:27;;;;;;;26.27;8.82;;;;;;;;;;5070063;28;20028;-69
2021/05/27 12:31:53;;;;;;;29.80;8.35;;;;;;;;;;5064717;28;20012;-69
2021/05/27 12:34:20;;;;;;;24.73;9.23;;;;;;;;;;5069605;28;20475;-69
2021/05/27 12:36:52;;;;;;;24.92;9.93;;;;;;;;;;5069154;28;20027;-69
2021/05/27 12:39:37;;;;;;;24.48;8.95;;;;;;;;;;5070026;28;20382;-69
2021/05/27 12:42:03;;;;;;;24.38;9.52;;;;;;;;;;5069821;28;20017;-69
2021/05/27 12:44:30;;;;;;;26.17;8.10;;;;;;;;;;5062823;28;20379;-69
2021/05/27 12:46:55;;;;;;;27.10;9.25;;;;;;;;;;5069287;28;20386;-69
2021/05/27 12:49:29;;;;;;;19.30;8.40;;;;;;;;;;5069958;28;20020;-69
2021/05/27 12:51:55;;;;;;;24.15;9.40;;;;;;;;;;5056283;28;20382;-69
2021/05/27 12:54:21;;;;;;;21.97;9.37;;;;;;;;;;5056720;28;20100;-69
2021/05/27 12:56:58;;;;;;;24.95;8.73;;;;;;;;;;5063781;28;20761;-69
2021/05/27 12:59:24;;;;;;;24.27;9.20;;;;;;;;;;5069885;28;20559;-69
2021/05/27 13:01:56;;;;;;;20.00;9.25;;;;;;;;;;5069480;28;20021;-69
2021/05/27 13:04:21;;;;;;;28.42;9.38;;;;;;;;;;5069994;28;20192;-69
2021/05/27 13:06:47;;;;;;;24.67;9.23;;;;;;;;;;5069452;28;20020;-69
2021/05/27 13:09:14;;;;;;;21.05;8.48;;;;;;;;;;5059729;28;20055;-69
2021/05/27 13:11:39;;;;;;;19.15;7.38;;;;;;;;;;5069864;28;20020;-69
2021/05/27 13:14:15;;;;;;;16.83;8.07;;;;;;;;;;5070124;28;20043;-69
2021/05/27 13:16:41;;;;;;;23.65;8.38;;;;;;;;;;5068771;28;20028;-69
2021/05/27 13:19:11;;;;;;;20.00;7.85;;;;;;;;;;5068936;28;20024;-69
2021/05/27 13:21:38;;;;;;;20.75;7.53;;;;;;;;;;5061362;28;20043;-69
2021/05/27 13:24:14;;;;;;;19.30;7.03;;;;;;;;;;5069611;28;20021;-69
2021/05/27 13:26:39;;;;;;;16.30;7.18;;;;;;;;;;5069493;28;20028;-68
2021/05/27 13:29:05;;;;;;;17.77;7.80;;;;;;;;;;5069556;28;20025;-68
2021/05/27 13:31:37;;;;;;;24.48;7.10;;;;;;;;;;5071010;28;20028;-68
2021/05/27 13:34:03;;;;;;;22.58;7.85;;;;;;;;;;5073478;28;20056;-68
2021/05/27 13:36:28;;;;;;;20.30;7.95;;;;;;;;;;5073026;28;20633;-68
2021/05/27 13:38:53;;;;;;;14.32;6.93;;;;;;;;;;5073244;28;20016;-68
2021/05/27 13:41:18;;;;;;;19.30;7.63;;;;;;;;;;5073410;28;20032;-68
2021/05/27 13:43:43;;;;;;;20.00;6.73;;;;;;;;;;5072765;28;20017;-68
2021/05/27 13:46:09;;;;;;;14.73;6.37;;;;;;;;;;5068678;28;20656;-68
2021/05/27 13:48:35;;;;;;;13.15;6.28;;;;;;;;;;5072505;28;20282;-68
2021/05/27 13:51:05;;;;;;;22.02;8.23;;;;;;;;;;5063712;28;20025;-68
2021/05/27 13:53:30;;;;;;;14.15;6.93;;;;;;;;;;5072739;28;20039;-68
2021/05/27 13:55:58;;;;;;;18.17;6.07;;;;;;;;;;5060954;28;20028;-69
2021/05/27 13:58:23;;;;;;;19.40;6.63;;;;;;;;;;5052781;28;20078;-68
2021/05/27 14:00:48;;;;;;;22.70;6.53;;;;;;;;;;5065691;28;20108;-68
2021/05/27 14:03:14;;;;;;;20.08;6.90;;;;;;;;;;5068008;28;20029;-68
2021/05/27 14:05:39;;;;;;;21.73;6.65;;;;;;;;;;5065557;28;20537;-68
2021/05/27 14:08:05;;;;;;;17.73;6.25;;;;;;;;;;5069143;28;20360;-68
2021/05/27 14:10:30;;;;;;;17.42;7.68;;;;;;;;;;5073330;28;20016;-68
2021/05/27 14:12:55;;;;;;;17.30;7.25;;;;;;;;;;5072989;28;20105;-69
2021/05/27 14:15:21;;;;;;;17.42;6.65;;;;;;;;;;5072197;28;20058;-69
2021/05/27 14:17:46;;;;;;;17.88;7.57;;;;;;;;;;5069838;28;20024;-69
2021/05/27 14:20:11;;;;;;;23.10;8.60;;;;;;;;;;5062397;28;20078;-69
2021/05/27 14:22:37;;;;;;;15.93;8.10;;;;;;;;;;5072690;28;20298;-69
2021/05/27 14:25:03;;;;;;;24.02;8.50;;;;;;;;;;5072166;28;20027;-69
2021/05/27 14:27:28;;;;;;;19.13;7.93;;;;;;;;;;5071306;28;20386;-69